createdAt,value
2018-06-12T00:01:24.872Z,11.40
2018-06-12T00:03:53.663Z,12.27
2018-06-12T00:06:22.486Z,12.27
2018-06-12T00:08:51.251Z,12.17
2018-06-12T00:11:20.128Z,11.60
2018-06-12T00:13:48.927Z,12.70
2018-06-12T00:16:17.713Z,11.03
2018-06-12T00:18:46.511Z,11.10
2018-06-12T00:21:15.232Z,11.03
2018-06-12T00:23:43.977Z,11.63
2018-06-12T00:26:12.771Z,10.50
2018-06-12T00:28:41.536Z,11.03
2018-06-12T00:31:16.348Z,10.63
2018-06-12T00:33:45.133Z,11.47
2018-06-12T00:36:13.895Z,10.33
2018-06-12T00:38:42.672Z,10.40
2018-06-12T00:41:11.409Z,11.93
2018-06-12T00:43:40.167Z,11.07
2018-06-12T00:46:08.944Z,10.80
2018-06-12T00:48:37.678Z,11.03
2018-06-12T00:51:06.447Z,10.23
2018-06-12T00:53:35.223Z,10.80
2018-06-12T00:56:03.837Z,11.00
2018-06-12T00:58:32.583Z,11.00
2018-06-12T01:01:01.494Z,10.00
2018-06-12T01:03:30.298Z,10.20
2018-06-12T01:05:59.080Z,10.87
2018-06-12T01:08:27.835Z,10.67
2018-06-12T01:10:56.657Z,10.73
2018-06-12T01:13:25.511Z,10.47
2018-06-12T01:15:54.236Z,9.70
2018-06-12T01:18:22.950Z,10.00
2018-06-12T01:20:51.705Z,10.70
2018-06-12T01:23:20.390Z,10.27
2018-06-12T01:25:49.119Z,10.43
2018-06-12T01:28:17.830Z,10.80
2018-06-12T01:30:46.550Z,11.10
2018-06-12T01:33:15.295Z,11.07
2018-06-12T01:35:44.022Z,12.27
2018-06-12T01:38:12.702Z,12.20
2018-06-12T01:40:41.059Z,12.30
2018-06-12T01:43:09.773Z,12.30
2018-06-12T01:45:38.492Z,13.00
2018-06-12T01:48:07.209Z,12.20
2018-06-12T01:50:35.966Z,13.47
2018-06-12T01:53:04.725Z,13.40
2018-06-12T01:55:33.471Z,12.90
2018-06-12T01:58:02.286Z,13.17
2018-06-12T02:00:31.026Z,13.63
2018-06-12T02:02:59.750Z,14.07
2018-06-12T02:05:28.499Z,13.23
2018-06-12T02:13:49.244Z,14.20
2018-06-12T02:16:17.935Z,15.20
2018-06-12T02:18:46.617Z,15.00
2018-06-12T02:21:15.390Z,14.67
2018-06-12T02:23:44.110Z,14.63
2018-06-12T02:26:13.088Z,14.87
2018-06-12T02:28:58.152Z,14.73
2018-06-12T02:31:26.878Z,15.03
2018-06-12T02:33:55.619Z,15.53
2018-06-12T02:36:24.432Z,15.13
2018-06-12T02:38:53.141Z,16.23
2018-06-12T02:41:21.882Z,15.00
2018-06-12T02:43:50.661Z,15.87
2018-06-12T02:46:19.414Z,17.00
2018-06-12T02:48:48.148Z,16.50
2018-06-12T02:51:16.859Z,16.43
2018-06-12T02:53:45.591Z,17.43
2018-06-12T02:56:20.548Z,16.40
2018-06-12T02:58:49.247Z,18.13
2018-06-12T03:01:17.920Z,19.87
2018-06-12T03:03:46.654Z,17.67
2018-06-12T03:06:33.305Z,18.53
2018-06-12T03:09:02.062Z,18.33
2018-06-12T03:11:30.832Z,17.93
2018-06-12T03:13:59.538Z,17.77
2018-06-12T03:16:28.286Z,17.40
2018-06-12T03:18:57.042Z,18.47
2018-06-12T03:21:37.721Z,19.50
2018-06-12T03:24:06.631Z,17.87
2018-06-12T03:26:35.374Z,18.80
2018-06-12T03:29:04.105Z,19.30
2018-06-12T03:31:32.895Z,19.10
2018-06-12T03:34:01.654Z,19.57
2018-06-12T03:36:30.419Z,20.60
2018-06-12T03:38:59.149Z,20.20
2018-06-12T03:41:27.892Z,18.37
2018-06-12T03:43:56.668Z,19.77
2018-06-12T03:46:41.487Z,18.93
2018-06-12T03:49:10.190Z,19.67
2018-06-12T03:51:38.917Z,19.20
2018-06-12T03:54:07.657Z,18.60
2018-06-12T03:56:36.406Z,18.93
2018-06-12T03:59:05.198Z,19.47
2018-06-12T04:01:33.955Z,19.27
2018-06-12T04:04:02.835Z,19.10
2018-06-12T04:06:36.302Z,17.80
2018-06-12T04:09:08.315Z,18.90
2018-06-12T04:11:37.183Z,18.60
2018-06-12T04:14:05.890Z,19.20
2018-06-12T04:16:36.440Z,17.80
2018-06-12T04:19:06.785Z,18.73
2018-06-12T04:21:36.202Z,17.73
2018-06-12T04:24:04.942Z,18.10
2018-06-12T04:26:33.672Z,19.00
2018-06-12T04:29:03.038Z,21.43
2018-06-12T04:31:31.855Z,20.10
2018-06-12T04:34:00.579Z,19.57
2018-06-12T04:36:29.319Z,19.37
2018-06-12T04:38:58.007Z,21.30
2018-06-12T04:41:26.762Z,19.50
2018-06-12T04:43:55.490Z,18.10
2018-06-12T04:46:24.229Z,19.53
2018-06-12T04:48:52.981Z,18.83
2018-06-12T04:51:21.699Z,18.50
2018-06-12T04:53:50.032Z,20.00
2018-06-12T04:56:18.765Z,18.90
2018-06-12T04:58:47.434Z,17.10
2018-06-12T05:01:15.741Z,16.87
2018-06-12T05:03:44.446Z,16.17
2018-06-12T05:06:13.147Z,16.83
2018-06-12T05:08:41.847Z,15.70
2018-06-12T05:11:10.571Z,16.57
2018-06-12T05:13:39.274Z,17.27
2018-06-12T05:18:58.706Z,17.83
2018-06-12T05:21:28.531Z,18.70
2018-06-12T05:23:57.268Z,17.67
2018-06-12T05:26:25.997Z,17.93
2018-06-12T05:28:55.337Z,18.07
2018-06-12T05:31:24.073Z,18.67
2018-06-12T05:33:52.763Z,18.17
2018-06-12T05:36:21.487Z,20.20
2018-06-12T05:38:50.194Z,19.87
2018-06-12T05:41:18.932Z,19.17
2018-06-12T05:43:47.953Z,19.47
2018-06-12T05:46:16.260Z,19.87
2018-06-12T05:48:44.993Z,21.33
2018-06-12T05:51:13.708Z,20.67
2018-06-12T05:53:42.470Z,21.00
2018-06-12T05:56:11.248Z,20.53
2018-06-12T05:58:39.936Z,22.50
2018-06-12T06:01:08.774Z,22.37
2018-06-12T06:03:37.499Z,21.17
2018-06-12T06:06:06.210Z,22.10
2018-06-12T06:08:34.936Z,20.83
2018-06-12T06:11:03.685Z,22.23
2018-06-12T06:13:32.454Z,21.73
2018-06-12T06:16:01.159Z,20.30
2018-06-12T06:18:29.870Z,20.73
2018-06-12T06:20:58.605Z,21.10
2018-06-12T06:23:27.422Z,20.60
2018-06-12T06:25:56.165Z,20.50
2018-06-12T06:28:24.886Z,20.40
2018-06-12T06:30:53.587Z,18.93
2018-06-12T06:33:22.347Z,19.23
2018-06-12T06:35:51.080Z,19.80
2018-06-12T06:38:19.788Z,19.87
2018-06-12T06:40:48.481Z,20.40
2018-06-12T06:43:17.194Z,21.60
2018-06-12T06:45:45.904Z,22.70
2018-06-12T06:48:14.622Z,23.40
2018-06-12T06:50:43.415Z,20.00
2018-06-12T06:53:12.135Z,20.27
2018-06-12T06:55:40.891Z,20.37
2018-06-12T06:58:09.635Z,20.97
2018-06-12T07:00:38.345Z,20.63
2018-06-12T07:03:06.696Z,20.20
2018-06-12T07:05:35.406Z,22.20
2018-06-12T07:08:03.728Z,22.10
2018-06-12T07:10:32.450Z,21.83
2018-06-12T07:13:01.149Z,22.63
2018-06-12T07:15:29.880Z,21.47
2018-06-12T07:17:58.583Z,19.27
2018-06-12T07:20:37.131Z,16.40
2018-06-12T07:23:06.071Z,16.87
2018-06-12T07:25:34.769Z,14.07
2018-06-12T07:28:03.517Z,14.60
2018-06-12T07:30:32.239Z,14.97
2018-06-12T07:33:00.946Z,15.47
2018-06-12T07:35:29.651Z,14.20
2018-06-12T07:37:58.329Z,14.17
2018-06-12T07:40:27.058Z,15.10
2018-06-12T07:42:55.752Z,13.93
2018-06-12T07:45:24.451Z,14.43
2018-06-12T07:47:53.138Z,14.17
2018-06-12T07:50:21.841Z,14.93
2018-06-12T07:52:50.599Z,13.60
2018-06-12T07:55:19.356Z,13.20
2018-06-12T07:57:48.718Z,13.60
2018-06-12T08:00:17.435Z,14.60
2018-06-12T08:02:46.168Z,14.13
2018-06-12T08:05:14.864Z,14.93
2018-06-12T08:07:43.554Z,14.23
2018-06-12T08:10:12.264Z,15.53
2018-06-12T08:12:41.023Z,13.40
2018-06-12T08:15:09.711Z,15.50
2018-06-12T08:17:38.430Z,16.47
2018-06-12T08:20:07.215Z,14.57
2018-06-12T08:22:36.366Z,13.67
2018-06-12T08:25:06.100Z,15.07
2018-06-12T08:27:34.818Z,15.73
2018-06-12T08:30:03.760Z,16.10
2018-06-12T08:32:32.346Z,15.43
2018-06-12T08:35:01.042Z,15.40
2018-06-12T08:37:29.735Z,15.43
2018-06-12T08:39:58.445Z,14.47
2018-06-12T08:42:27.174Z,14.37
2018-06-12T08:44:55.862Z,12.70
2018-06-12T08:47:24.530Z,14.23
2018-06-12T08:49:53.693Z,13.37
2018-06-12T08:52:22.474Z,13.50
2018-06-12T08:54:51.198Z,12.17
2018-06-12T08:57:19.879Z,12.10
2018-06-12T08:59:48.564Z,12.30
2018-06-12T09:02:17.294Z,11.83
2018-06-12T09:04:45.971Z,11.20
2018-06-12T09:07:14.675Z,11.07
2018-06-12T09:09:43.347Z,11.90
2018-06-12T09:12:12.058Z,11.63
2018-06-12T09:14:41.642Z,11.20
2018-06-12T09:17:10.330Z,11.20
2018-06-12T09:19:39.022Z,11.27
2018-06-12T09:22:07.714Z,10.60
2018-06-12T09:24:36.402Z,9.90
2018-06-12T09:27:05.202Z,9.40
2018-06-12T09:29:33.922Z,7.87
2018-06-12T09:32:02.758Z,9.13
2018-06-12T09:34:31.447Z,9.60
2018-06-12T09:37:00.161Z,10.00
2018-06-12T09:39:28.882Z,8.43
2018-06-12T09:41:57.587Z,9.13
2018-06-12T09:44:26.310Z,7.27
2018-06-12T09:46:55.008Z,8.90
2018-06-12T09:49:23.688Z,8.83
2018-06-12T09:51:52.438Z,8.50
2018-06-12T09:54:21.169Z,9.20
2018-06-12T09:56:49.863Z,7.93
2018-06-12T09:59:18.559Z,9.10
2018-06-12T10:01:47.282Z,7.97
2018-06-12T10:04:16.007Z,8.20
2018-06-12T10:06:44.680Z,5.40
2018-06-12T10:09:13.430Z,5.20
2018-06-12T10:11:42.132Z,5.67
2018-06-12T10:14:10.847Z,5.70
2018-06-12T10:16:39.587Z,5.70
2018-06-12T10:19:08.252Z,5.60
2018-06-12T10:21:36.975Z,6.50
2018-06-12T10:24:06.281Z,6.27
2018-06-12T10:26:34.959Z,4.70
2018-06-12T10:29:03.672Z,5.20
2018-06-12T10:31:32.352Z,6.00
2018-06-12T10:34:01.098Z,4.90
2018-06-12T10:36:29.788Z,6.70
2018-06-12T10:38:58.520Z,7.10
2018-06-12T10:41:27.959Z,7.37
2018-06-12T10:43:56.654Z,6.90
2018-06-12T10:46:25.407Z,6.40
2018-06-12T10:48:54.099Z,5.30
2018-06-12T10:51:22.830Z,7.00
2018-06-12T10:53:51.600Z,4.23
2018-06-12T10:56:20.313Z,4.30
2018-06-12T10:58:49.034Z,4.53
2018-06-12T11:01:17.747Z,5.70
2018-06-12T11:03:46.473Z,7.07
2018-06-12T11:06:15.200Z,7.27
2018-06-12T11:08:43.905Z,8.60
2018-06-12T11:11:12.313Z,8.50
2018-06-12T11:13:47.569Z,10.40
2018-06-12T11:16:16.482Z,10.13
2018-06-12T11:18:45.486Z,10.63
2018-06-12T11:21:25.605Z,11.43
2018-06-12T11:23:54.276Z,12.30
2018-06-12T11:26:22.967Z,13.30
2018-06-12T11:28:51.673Z,15.97
2018-06-12T11:31:20.338Z,17.30
2018-06-12T11:33:49.049Z,16.40
2018-06-12T11:36:17.737Z,18.17
2018-06-12T11:38:46.786Z,19.80
2018-06-12T11:41:16.587Z,23.13
2018-06-12T11:43:45.266Z,22.77
2018-06-12T11:46:14.032Z,23.70
2018-06-12T11:48:42.797Z,21.60
2018-06-12T11:51:11.487Z,24.40
2018-06-12T11:53:40.182Z,24.37
2018-06-12T11:56:08.862Z,27.37
2018-06-12T11:58:37.567Z,25.77
2018-06-12T12:01:06.921Z,26.30
2018-06-12T12:03:35.624Z,26.43
2018-06-12T12:06:04.333Z,29.90
2018-06-12T12:08:33.007Z,30.70
2018-06-12T12:11:02.255Z,33.30
2018-06-12T12:13:30.951Z,29.33
2018-06-12T12:15:59.611Z,32.50
2018-06-12T12:18:28.302Z,29.27
2018-06-12T12:20:56.957Z,28.57
2018-06-12T12:23:25.666Z,28.00
2018-06-12T12:25:54.324Z,26.63
2018-06-12T12:28:23.010Z,20.10
2018-06-12T12:30:51.726Z,19.50
2018-06-12T12:33:20.025Z,17.70
2018-06-12T12:35:48.718Z,22.00
2018-06-12T12:38:17.395Z,21.57
2018-06-12T12:40:46.051Z,17.20
2018-06-12T12:43:14.746Z,18.10
2018-06-12T12:45:43.429Z,19.80
2018-06-12T12:48:12.115Z,20.37
2018-06-12T12:50:40.808Z,21.17
2018-06-12T12:53:09.128Z,22.97
2018-06-12T12:55:37.931Z,22.10
2018-06-12T12:58:06.759Z,21.87
2018-06-12T13:00:36.149Z,23.07
2018-06-12T13:03:04.846Z,26.43
2018-06-12T13:05:33.171Z,26.33
2018-06-12T13:08:01.934Z,24.70
2018-06-12T13:10:30.645Z,29.37
2018-06-12T13:12:59.334Z,23.03
2018-06-12T13:15:28.119Z,23.47
2018-06-12T13:17:56.843Z,21.27
2018-06-12T13:20:25.670Z,21.30
2018-06-12T13:22:54.442Z,22.47
2018-06-12T13:25:22.746Z,23.10
2018-06-12T13:27:51.505Z,21.80
2018-06-12T13:30:20.235Z,22.40
2018-06-12T13:32:48.927Z,22.60
2018-06-12T13:35:17.635Z,23.43
2018-06-12T13:37:46.302Z,21.60
2018-06-12T13:40:15.019Z,26.60
2018-06-12T13:42:43.698Z,26.40
2018-06-12T13:45:13.338Z,28.20
2018-06-12T13:47:41.998Z,25.73
2018-06-12T13:50:10.724Z,26.70
2018-06-12T13:52:39.474Z,28.20
2018-06-12T13:55:08.159Z,26.10
2018-06-12T13:57:36.865Z,24.67
2018-06-12T14:00:05.266Z,25.37
2018-06-12T14:02:33.937Z,26.07
2018-06-12T14:05:02.638Z,26.17
2018-06-12T14:07:31.323Z,23.57
2018-06-12T14:10:00.028Z,24.90
2018-06-12T14:12:28.723Z,25.43
2018-06-12T14:14:57.423Z,24.43
2018-06-12T14:17:26.950Z,23.93
2018-06-12T14:19:55.646Z,25.10
2018-06-12T14:22:24.478Z,22.93
2018-06-12T14:24:53.163Z,24.30
2018-06-12T14:27:21.862Z,23.30
2018-06-12T14:29:50.587Z,25.80
2018-06-12T14:32:18.888Z,26.43
2018-06-12T14:34:47.593Z,28.57
2018-06-12T14:37:16.287Z,24.50
2018-06-12T14:39:45.102Z,23.67
2018-06-12T14:42:14.682Z,23.87
2018-06-12T14:44:43.365Z,22.13
2018-06-12T14:47:12.129Z,23.50
2018-06-12T14:49:40.851Z,23.30
2018-06-12T14:52:09.558Z,22.97
2018-06-12T14:54:38.612Z,22.70
2018-06-12T14:57:07.319Z,21.83
2018-06-12T14:59:36.057Z,20.87
2018-06-12T15:02:04.779Z,21.07
2018-06-12T15:04:33.538Z,20.80
2018-06-12T15:07:02.361Z,18.90
2018-06-12T15:09:31.167Z,20.10
2018-06-12T15:12:00.012Z,20.80
2018-06-12T15:14:28.712Z,21.80
2018-06-12T15:16:57.410Z,18.60
2018-06-12T15:19:26.129Z,18.97
2018-06-12T15:21:55.571Z,18.93
2018-06-12T15:24:24.282Z,17.00
2018-06-12T15:26:53.007Z,16.70
2018-06-12T15:29:21.695Z,18.40
2018-06-12T15:31:50.443Z,16.63
2018-06-12T15:34:19.215Z,16.03
2018-06-12T15:36:47.990Z,15.33
2018-06-12T15:39:16.310Z,16.17
2018-06-12T15:41:45.011Z,12.47
2018-06-12T15:44:13.711Z,12.90
2018-06-12T15:46:42.458Z,14.27
2018-06-12T15:49:11.179Z,12.70
2018-06-12T15:51:40.215Z,12.30
2018-06-12T15:54:09.077Z,13.00
2018-06-12T15:56:37.871Z,12.23
2018-06-12T15:59:06.564Z,11.17
2018-06-12T16:01:35.273Z,12.53
2018-06-12T16:04:03.981Z,10.87
2018-06-12T16:06:32.658Z,11.13
2018-06-12T16:09:01.417Z,10.47
2018-06-12T16:11:30.092Z,10.40
2018-06-12T16:13:58.783Z,9.60
2018-06-12T16:16:27.066Z,10.27
2018-06-12T16:18:56.276Z,12.40
2018-06-12T16:21:25.029Z,13.27
2018-06-12T16:23:53.709Z,13.07
2018-06-12T16:26:22.659Z,12.80
2018-06-12T16:28:51.342Z,13.27
2018-06-12T16:31:20.011Z,13.83
2018-06-12T16:33:48.702Z,11.00
2018-06-12T16:36:18.070Z,10.67
2018-06-12T16:38:46.753Z,9.80
2018-06-12T16:41:17.528Z,10.50
2018-06-12T16:43:46.256Z,10.53
2018-06-12T16:46:14.974Z,11.03
2018-06-12T16:48:43.877Z,11.57
2018-06-12T16:51:12.592Z,11.47
2018-06-12T16:53:41.351Z,13.20
2018-06-12T16:59:15.701Z,13.73
2018-06-12T17:01:44.392Z,13.87
2018-06-12T17:04:13.105Z,13.53
2018-06-12T17:06:42.169Z,14.03
2018-06-12T17:09:10.874Z,14.30
2018-06-12T17:11:39.595Z,14.03
2018-06-12T17:14:08.875Z,16.27
2018-06-12T17:16:37.598Z,14.47
2018-06-12T17:19:06.365Z,14.00
2018-06-12T17:21:35.050Z,15.77
2018-06-12T17:24:03.765Z,14.83
2018-06-12T17:26:32.438Z,16.10
2018-06-12T17:29:01.165Z,12.23
2018-06-12T17:31:30.808Z,10.40
2018-06-12T17:33:59.511Z,11.40
2018-06-12T17:36:28.524Z,15.30
2018-06-12T17:38:57.166Z,13.53
2018-06-12T17:41:25.871Z,12.40
2018-06-12T17:46:54.142Z,14.30
2018-06-12T17:49:22.798Z,14.53
2018-06-12T17:51:51.466Z,14.70
2018-06-12T17:54:20.182Z,15.17
2018-06-12T17:56:48.905Z,9.87
2018-06-12T17:59:17.626Z,9.00
2018-06-12T18:01:46.279Z,9.70
2018-06-12T18:04:14.950Z,10.10
2018-06-12T18:06:43.658Z,11.53
2018-06-12T18:09:12.326Z,13.23
2018-06-12T18:11:41.131Z,14.80
2018-06-12T18:14:10.130Z,16.20
2018-06-12T18:16:38.474Z,19.60
2018-06-12T18:19:07.474Z,21.63
2018-06-12T18:21:37.166Z,27.47
2018-06-12T18:24:06.556Z,28.53
2018-06-12T18:26:38.759Z,31.70
2018-06-12T18:29:07.485Z,31.67
2018-06-12T18:31:36.172Z,32.70
2018-06-12T18:34:04.876Z,32.50
2018-06-12T18:36:40.436Z,33.50
2018-06-12T18:39:09.205Z,31.97
2018-06-12T18:41:37.931Z,32.83
2018-06-12T18:44:06.660Z,33.53
2018-06-12T18:46:35.330Z,33.20
2018-06-12T18:49:04.059Z,31.40
2018-06-12T18:51:32.772Z,31.33
2018-06-12T18:54:01.543Z,33.67
2018-06-12T18:56:30.234Z,32.67
2018-06-12T18:58:59.005Z,32.23
2018-06-12T19:01:27.719Z,34.20
2018-06-12T19:03:56.378Z,33.37
2018-06-12T19:06:25.160Z,34.57
2018-06-12T19:08:53.810Z,35.20
2018-06-12T19:11:22.503Z,35.40
2018-06-12T19:13:51.271Z,32.90
2018-06-12T19:16:19.993Z,33.57
2018-06-12T19:18:48.936Z,34.00
2018-06-12T19:21:17.615Z,33.77
2018-06-12T19:23:46.458Z,32.60
2018-06-12T19:26:15.130Z,33.07
2018-06-12T19:28:43.847Z,32.00
2018-06-12T19:31:12.553Z,27.83
2018-06-12T19:33:41.343Z,25.60
2018-06-12T19:36:10.046Z,27.67
2018-06-12T19:38:45.817Z,27.37
2018-06-12T19:41:14.599Z,24.67
2018-06-12T19:43:50.225Z,26.10
2018-06-12T19:46:24.903Z,27.10
2018-06-12T19:48:53.672Z,25.03
2018-06-12T19:51:22.363Z,26.53
2018-06-12T19:53:51.132Z,29.60
2018-06-12T19:56:19.899Z,29.20
2018-06-12T19:58:48.555Z,28.37
2018-06-12T20:01:17.266Z,30.07
2018-06-12T20:03:47.980Z,29.60
2018-06-12T20:06:16.702Z,30.37
2018-06-12T20:08:45.479Z,30.03
2018-06-12T20:11:14.227Z,29.30
2018-06-12T20:13:43.010Z,27.03
2018-06-12T20:16:11.715Z,25.87
2018-06-12T20:18:44.571Z,25.80
2018-06-12T20:21:12.870Z,26.17
2018-06-12T20:23:41.535Z,24.10
2018-06-12T20:26:11.225Z,25.10
2018-06-12T20:28:39.967Z,23.17
2018-06-12T20:31:09.003Z,25.27
2018-06-12T20:33:37.688Z,26.10
2018-06-12T20:36:07.230Z,28.57
2018-06-12T20:38:35.920Z,27.20
2018-06-12T20:41:04.601Z,27.33
2018-06-12T20:43:33.342Z,25.93
2018-06-12T20:46:02.049Z,24.17
2018-06-12T20:48:30.745Z,25.20
2018-06-12T20:50:59.120Z,22.63
2018-06-12T20:53:27.846Z,22.27
2018-06-12T20:55:56.589Z,22.13
2018-06-12T20:58:25.311Z,21.93
2018-06-12T21:00:54.018Z,21.37
2018-06-12T21:03:22.714Z,21.00
2018-06-12T21:05:51.380Z,20.10
2018-06-12T21:08:21.109Z,18.80
2018-06-12T21:10:49.823Z,19.53
2018-06-12T21:13:18.527Z,19.90
2018-06-12T21:15:47.274Z,20.27
2018-06-12T21:18:16.015Z,18.77
2018-06-12T21:20:44.787Z,18.80
2018-06-12T21:23:13.113Z,17.90
2018-06-12T21:25:41.832Z,20.53
2018-06-12T21:28:10.642Z,18.23
2018-06-12T21:30:39.339Z,17.83
2018-06-12T21:33:08.052Z,18.13
2018-06-12T21:35:37.028Z,18.67
2018-06-12T21:38:05.987Z,18.10
2018-06-12T21:40:34.918Z,17.47
2018-06-12T21:43:03.746Z,19.40
2018-06-12T21:45:32.474Z,18.37
2018-06-12T21:48:01.191Z,19.20
2018-06-12T21:50:29.875Z,18.47
2018-06-12T21:52:58.565Z,18.90
2018-06-12T21:55:27.271Z,19.30
2018-06-12T21:57:55.985Z,20.83
2018-06-12T22:00:31.983Z,19.13
2018-06-12T22:03:04.318Z,19.03
2018-06-12T22:05:32.653Z,19.80
2018-06-12T22:08:01.322Z,18.27
2018-06-12T22:10:30.059Z,17.67
2018-06-12T22:13:01.444Z,16.93
2018-06-12T22:15:30.218Z,17.13
2018-06-12T22:17:58.902Z,15.80
2018-06-12T22:20:27.571Z,17.03
2018-06-12T22:22:56.279Z,16.70
2018-06-12T22:25:24.975Z,17.00
2018-06-12T22:27:53.738Z,16.50
2018-06-12T22:30:22.033Z,16.80
2018-06-12T22:32:50.744Z,17.27
2018-06-12T22:35:19.470Z,16.90
2018-06-12T22:37:49.193Z,17.03
2018-06-12T22:40:17.923Z,17.37
2018-06-12T22:42:46.627Z,17.30
2018-06-12T22:45:15.302Z,16.27
2018-06-12T22:47:44.024Z,16.10
2018-06-12T22:50:16.137Z,16.40
2018-06-12T22:52:44.871Z,15.67
2018-06-12T22:55:13.562Z,16.10
2018-06-12T22:57:45.798Z,16.00
2018-06-12T23:00:20.482Z,14.37
2018-06-12T23:02:49.854Z,15.67
2018-06-12T23:05:18.594Z,15.10
2018-06-12T23:07:47.314Z,13.73
2018-06-12T23:10:16.050Z,15.37
2018-06-12T23:12:57.512Z,14.87
2018-06-12T23:15:26.245Z,12.90
2018-06-12T23:17:54.910Z,14.20
2018-06-12T23:20:34.918Z,12.87
2018-06-12T23:23:03.606Z,13.37
2018-06-12T23:25:32.294Z,13.50
2018-06-12T23:28:01.006Z,13.10
2018-06-12T23:30:29.697Z,12.60
2018-06-12T23:32:58.415Z,13.43
2018-06-12T23:35:27.109Z,13.40
2018-06-12T23:37:55.788Z,12.37
2018-06-12T23:40:24.501Z,12.13
2018-06-12T23:42:56.541Z,12.90
2018-06-12T23:45:28.410Z,12.67
2018-06-12T23:47:57.091Z,12.27
2018-06-12T23:50:25.769Z,12.70
2018-06-12T23:52:54.488Z,13.13
2018-06-12T23:55:23.154Z,12.53
2018-06-12T23:57:51.862Z,12.10
